Etusivu
METAR-TAF:

METAR-TAF

Lentoasemat :

Greenville, Maine, Yhdysvallat

Leveyspiiri: 45-28N, Pituuspiiri: 069-35W, korkeus merenpinnasta: 427 m

Tämänhetkinen sää

Tämä raportti tehtiin 47 minuuttia sitten, kello 12.56 UTC
tyyntä
Lämpötila 4°C
Kosteus 81%
Ilmanpaine 1009 hPa

METAR: KGNR 111256Z AUTO 00000KT 04/01 A2981 RMK AO1 SLP103 T00390006

Aika: 09:43 (13:43 UTC)


TAF: puuttuu

Säähavainnot ja -ennusteet yli 4000 lentoasemalta (METAR- ja TAF-raportit).

Käytössä olevat sääasemat on merkitty karttaan keltaisilla ja punaisilla pisteillä.

Aseta hiiri pisteen päälle nähdäksesi sääaseman nimen.

Klikkaa sitten nähdäksesi säähavainnot ja -ennusteet.

Kartan vaihtaminen: klikkaa mustalla rastilla varustettuja vihreitä pisteitä, niin voit zoomata sisään; viivalla varustettua vihreää pistettä, niin voit zoomata ulos tai vihreitä nuolia, niin pääset viereisille kartoille.


METAR-TAF: